Latest Weather Observations for Kingscote

IDS60801

Issued at 8:05 am CST Thursday 28 August 2014 (issued every 30 minutes, with the page automatically refreshed every 10 minutes)

About weather observations | Map of weather stations | Latest weather observations for SA | Other Formats
Station Details ID: 022841 Name: KINGSCOTE AERO Lat: -35.71 Lon: 137.52 Height: 6.23 m
Data from the previous 72 hours. | See also: Recent months at Kingscote
Date/Time
CST
Temp
°C
App
Temp
°C
Dew
Point
Rel
Hum
%
Delta-T
°C
Wind Press
QNH
hPa
Press
MSL
hPa
Rain
since 9 am
mm
Dir
 
Spd
km/h
Gust
km/h
Spd
kts
Gust
kts
28/08:00am 6.7 5.8 6.0 95 0.3 NNW 0 0 0 0 1028.4 1028.4 0.0
28/07:30am 4.7 3.4 4.3 97 0.2 SSW 0 0 0 0 1028.3 1028.3 0.0
28/07:00am 2.8 1.2 2.2 96 0.2 CALM 0 0 0 0 1028.1 1028.1 0.0
28/06:30am 3.0 1.4 2.4 96 0.2 CALM 0 0 0 0 1027.9 1027.9 0.0
28/06:00am 3.5 2.0 3.1 97 0.2 SW 0 0 0 0 1027.7 1027.7 0.0
28/05:30am 2.7 1.1 2.3 97 0.2 CALM 0 0 0 0 1027.5 1027.5 0.0
28/05:00am 3.4 1.9 3.0 97 0.2 CALM 0 0 0 0 1027.2 1027.2 0.0
28/04:30am 3.3 1.8 2.9 97 0.2 CALM 0 0 0 0 1027.3 1027.3 0.0
28/04:00am 3.7 2.3 3.3 97 0.2 CALM 0 0 0 0 1027.2 1027.2 0.0
28/03:30am 3.5 2.0 3.1 97 0.2 CALM 0 0 0 0 1027.2 1027.2 0.0
28/03:00am 4.1 2.7 3.7 97 0.2 CALM 0 0 0 0 1027.3 1027.3 0.0
28/02:30am 4.2 2.8 3.8 97 0.2 CALM 0 0 0 0 1027.6 1027.6 0.0
28/02:26am 4.0 2.6 3.6 97 0.2 CALM 0 0 0 0 1027.6 1027.6 0.0
28/02:15am 4.1 2.7 3.7 97 0.2 CALM 0 0 0 0 1027.7 1027.7 0.0
28/02:00am 4.4 3.1 4.0 97 0.2 CALM 0 0 0 0 1027.8 1027.8 0.0
28/01:30am 5.0 3.8 4.6 97 0.2 CALM 0 0 0 0 1027.8 1027.8 0.0
28/01:00am 4.7 3.4 4.3 97 0.2 CALM 0 0 0 0 1028.1 1028.1 0.0
28/12:30am 5.1 3.9 4.7 97 0.2 CALM 0 0 0 0 1028.1 1028.1 0.0
28/12:00am 4.6 3.3 4.0 96 0.2 WSW 0 0 0 0 1028.3 1028.3 0.0
 
Date/Time
CST
Temp
°C
App
Temp
°C
Dew
Point
Rel
Hum
%
Delta-T
°C
Wind Press
QNH
hPa
Press
MSL
hPa
Rain
since 9 am
mm
Dir
 
Spd
km/h
Gust
km/h
Spd
kts
Gust
kts
27/11:30pm 5.6 4.5 5.2 97 0.2 CALM 0 0 0 0 1028.4 1028.4 0.0
27/11:00pm 5.7 4.6 5.3 97 0.2 CALM 0 0 0 0 1028.5 1028.5 0.0
27/10:30pm 5.6 4.5 5.2 97 0.2 CALM 0 0 0 0 1028.5 1028.5 0.0
27/10:07pm 5.6 4.5 5.0 96 0.3 CALM 0 0 0 0 1028.4 1028.4 0.0
27/10:00pm 6.1 5.1 5.5 96 0.3 CALM 0 0 0 0 1028.3 1028.3 0.0
27/09:42pm 6.5 5.5 5.8 95 0.3 CALM 0 0 0 0 1028.3 1028.3 0.0
27/09:31pm 6.8 5.9 6.1 95 0.3 CALM 0 0 0 0 1028.3 1028.3 0.0
27/09:30pm 6.8 5.9 6.1 95 0.3 CALM 0 0 0 0 1028.3 1028.3 0.0
27/09:09pm 7.0 6.2 6.3 95 0.3 CALM 0 0 0 0 1028.3 1028.3 0.0
27/09:00pm 7.9 7.3 7.3 96 0.3 CALM 0 0 0 0 1028.3 1028.3 0.0
27/08:30pm 8.2 7.6 7.4 95 0.4 CALM 0 0 0 0 1028.1 1028.1 0.0
27/08:00pm 8.8 8.4 8.2 96 0.3 CALM 0 0 0 0 1027.9 1027.9 0.0
27/07:30pm 8.7 8.1 7.5 92 0.6 CALM 0 0 0 0 1027.6 1027.6 0.0
27/07:00pm 10.8 10.6 9.2 90 0.8 CALM 0 0 0 0 1027.1 1027.1 0.0
27/06:30pm 12.3 11.4 10.7 90 0.8 ENE 6 7 3 4 1026.8 1026.8 0.0
27/06:00pm 12.9 11.8 10.8 87 1.1 E 7 9 4 5 1026.6 1026.6 0.0
27/05:30pm 14.4 13.1 11.4 82 1.6 E 9 13 5 7 1026.5 1026.5 0.0
27/05:00pm 16.4 14.9 11.8 74 2.5 E 11 15 6 8 1026.2 1026.2 0.0
27/04:30pm 18.1 16.0 8.4 53 5.0 N 9 11 5 6 1026.0 1026.0 0.0
27/04:00pm 18.3 15.9 7.1 48 5.6 N 9 13 5 7 1025.9 1025.9 0.0
27/03:30pm 18.8 16.2 6.3 44 6.2 N 9 15 5 8 1025.9 1025.9 0.0
27/03:00pm 18.8 16.2 6.0 43 6.3 N 9 15 5 8 1026.0 1026.0 0.0
27/02:30pm 18.4 14.9 7.2 48 5.6 N 15 20 8 11 1025.9 1025.9 0.0
27/02:00pm 18.4 15.3 10.3 59 4.3 NNE 17 20 9 11 1025.8 1025.8 0.0
27/01:30pm 17.8 14.9 9.7 59 4.2 N 15 20 8 11 1026.0 1026.0 0.0
27/01:00pm 17.7 14.8 9.8 60 4.2 N 15 20 8 11 1026.3 1026.3 0.0
27/12:30pm 17.2 14.8 9.9 62 3.8 N 13 17 7 9 1026.6 1026.6 0.0
27/12:00pm 17.3 14.6 10.4 64 3.6 N 15 20 8 11 1027.0 1027.0 0.0
27/11:30am 16.8 13.5 9.5 62 3.8 N 17 20 9 11 1027.2 1027.2 0.0
27/11:00am 16.5 14.4 11.2 71 2.9 NNE 13 17 7 9 1027.8 1027.8 0.0
27/10:30am 14.7 15.0 10.9 78 2.0 CALM 0 0 0 0 1028.1 1028.1 0.0
27/10:00am 13.3 13.7 11.4 88 1.0 CALM 0 0 0 0 1028.1 1028.1 0.0
27/09:30am 11.8 12.1 10.9 94 0.5 CALM 0 0 0 0 1028.1 1028.1 0.0
27/09:00am 9.9 9.8 9.4 97 0.2 CALM 0 0 0 0 1028.0 1028.0 0.2
27/08:30am 7.6 7.0 7.3 98 0.1 CALM 0 0 0 0 1027.5 1027.5 0.2
27/08:00am 5.3 4.2 5.0 98 0.1 CALM 0 0 0 0 1027.2 1027.2 0.2
27/07:31am 3.8 2.4 3.5 98 0.1 CALM 0 0 0 0 1026.7 1026.7 0.2
27/07:30am 3.7 2.3 3.4 98 0.1 CALM 0 0 0 0 1026.7 1026.7 0.2
27/07:04am 2.5 0.9 2.2 98 0.1 CALM 0 0 0 0 1026.2 1026.2 0.2
27/07:00am 2.4 0.7 2.1 98 0.1 CALM 0 0 0 0 1026.2 1026.2 0.2
27/06:30am 1.7 -0.1 1.4 98 0.1 CALM 0 0 0 0 1026.0 1026.0 0.2
27/06:20am 1.6 -0.2 1.3 98 0.1 CALM 0 0 0 0 1025.9 1025.9 0.2
27/06:05am 2.2 0.5 1.9 98 0.1 CALM 0 0 0 0 1025.7 1025.7 0.2
27/06:00am 1.9 0.2 1.6 98 0.1 CALM 0 0 0 0 1025.7 1025.7 0.2
27/05:30am 1.6 -0.2 1.3 98 0.1 CALM 0 0 0 0 1025.7 1025.7 0.2
27/05:25am 1.8 0.0 1.5 98 0.1 CALM 0 0 0 0 1025.6 1025.6 0.2
27/05:11am 1.5 -0.3 1.2 98 0.1 CALM 0 0 0 0 1025.6 1025.6 0.2
27/05:00am 1.4 -0.4 1.0 97 0.1 CALM 0 0 0 0 1025.6 1025.6 0.2
27/04:30am 0.8 -1.1 0.4 97 0.1 CALM 0 0 0 0 1025.4 1025.4 0.2
27/04:00am 1.3 -0.5 0.9 97 0.1 CALM 0 0 0 0 1025.1 1025.1 0.2
27/03:30am 1.2 -0.7 0.6 96 0.2 CALM 0 0 0 0 1025.0 1025.0 0.0
27/03:00am 1.5 -0.3 1.1 97 0.1 CALM 0 0 0 0 1025.0 1025.0 0.0
27/02:30am 2.1 0.0 1.7 97 0.2 SW 2 6 1 3 1025.2 1025.2 0.0
27/02:00am 1.4 -1.8 0.8 96 0.2 SW 7 11 4 6 1025.7 1025.7 0.0
27/01:30am 2.8 1.2 2.2 96 0.2 CALM 0 0 0 0 1025.6 1025.6 0.0
27/01:00am 2.7 1.1 2.3 97 0.2 CALM 0 0 0 0 1025.9 1025.9 0.0
27/12:30am 2.2 0.5 1.6 96 0.2 CALM 0 0 0 0 1025.8 1025.8 0.0
27/12:00am 2.9 1.3 2.3 96 0.2 CALM 0 0 0 0 1025.8 1025.8 0.0
 
Date/Time
CST
Temp
°C
App
Temp
°C
Dew
Point
Rel
Hum
%
Delta-T
°C
Wind Press
QNH
hPa
Press
MSL
hPa
Rain
since 9 am
mm
Dir
 
Spd
km/h
Gust
km/h
Spd
kts
Gust
kts
26/11:30pm 2.7 1.0 2.0 95 0.3 CALM 0 0 0 0 1025.9 1025.9 0.0
26/11:00pm 3.7 2.2 3.1 96 0.2 CALM 0 0 0 0 1026.0 1026.0 0.0
26/10:30pm 3.8 2.3 3.1 95 0.3 CALM 0 0 0 0 1026.0 1026.0 0.0
26/10:00pm 4.2 2.8 3.3 94 0.4 CALM 0 0 0 0 1026.0 1026.0 0.0
26/09:30pm 4.3 2.9 3.3 93 0.4 CALM 0 0 0 0 1026.0 1026.0 0.0
26/09:00pm 4.5 3.1 3.6 94 0.4 CALM 0 0 0 0 1025.9 1025.9 0.0
26/08:30pm 6.3 5.1 4.8 90 0.6 CALM 0 0 0 0 1026.0 1026.0 0.0
26/08:00pm 7.2 6.2 5.7 90 0.7 CALM 0 0 0 0 1026.0 1026.0 0.0
26/07:30pm 7.1 5.0 5.6 90 0.7 SSW 6 7 3 4 1025.9 1025.9 0.0
26/07:00pm 8.7 6.3 7.0 89 0.8 ESE 9 9 5 5 1025.5 1025.5 0.0
26/06:30pm 9.6 7.5 6.0 78 1.6 SSE 6 9 3 5 1025.1 1025.1 0.0
26/06:00pm 12.2 10.3 6.5 68 2.7 NNE 6 7 3 4 1024.9 1024.9 0.0
26/05:30pm 13.7 11.5 6.1 60 3.6 N 7 9 4 5 1024.6 1024.6 0.0
26/05:00pm 14.8 12.4 6.9 59 3.9 N 9 13 5 7 1024.5 1024.5 0.0
26/04:30pm 15.3 12.5 6.8 57 4.1 N 11 15 6 8 1024.6 1024.6 0.0
26/04:00pm 16.0 13.5 8.0 59 4.0 N 11 19 6 10 1024.6 1024.6 0.0
26/03:30pm 15.8 12.6 6.8 55 4.4 NNW 13 17 7 9 1024.7 1024.7 0.0
26/03:00pm 15.6 12.4 6.9 56 4.2 N 13 19 7 10 1024.9 1024.9 0.0
26/02:30pm 16.0 13.1 8.2 60 3.9 N 13 20 7 11 1025.1 1025.1 0.0
26/02:00pm 15.7 12.8 8.0 60 3.9 N 13 19 7 10 1025.2 1025.2 0.0
26/01:30pm 16.6 13.9 9.1 61 3.9 NNE 13 20 7 11 1025.4 1025.4 0.0
26/01:00pm 15.8 12.9 8.1 60 3.9 NNE 13 19 7 10 1025.8 1025.8 0.0
26/12:30pm 15.3 12.3 7.6 60 3.8 NNE 13 20 7 11 1026.2 1026.2 0.0
26/12:00pm 15.3 12.8 8.3 63 3.5 NNE 11 17 6 9 1026.7 1026.7 0.0
26/11:30am 15.1 12.1 9.2 68 3.0 NNE 15 20 8 11 1027.1 1027.1 0.0
26/11:00am 14.5 11.0 8.9 69 2.8 NE 17 20 9 11 1027.3 1027.3 0.0
26/10:30am 14.3 11.3 9.1 71 2.6 NE 15 22 8 12 1027.4 1027.4 0.0
26/10:00am 13.3 11.7 10.3 82 1.6 NE 9 15 5 8 1027.8 1027.8 0.0
26/09:37am 11.9 12.0 10.1 89 0.9 CALM 0 0 0 0 1028.0 1028.0 0.0
26/09:30am 11.7 11.8 10.3 91 0.7 CALM 0 0 0 0 1028.0 1028.0 0.0
26/09:00am 9.2 8.9 8.7 97 0.2 CALM 0 0 0 0 1028.1 1028.1 0.0
26/08:30am 7.9 7.3 7.6 98 0.1 CALM 0 0 0 0 1028.1 1028.1 0.0
26/08:00am 6.0 5.0 5.7 98 0.1 CALM 0 0 0 0 1028.2 1028.2 0.0
26/07:36am 3.2 1.7 2.9 98 0.1 CALM 0 0 0 0 1028.1 1028.1 0.0
26/07:30am 2.8 1.2 2.5 98 0.1 CALM 0 0 0 0 1028.0 1028.0 0.0
26/07:00am 2.2 0.5 1.8 97 0.2 CALM 0 0 0 0 1027.9 1027.9 0.0
26/06:30am 2.6 1.0 2.3 98 0.1 CALM 0 0 0 0 1027.5 1027.5 0.0
26/06:00am 2.3 0.6 1.9 97 0.2 CALM 0 0 0 0 1027.3 1027.3 0.0
26/05:30am 2.4 0.7 2.0 97 0.2 CALM 0 0 0 0 1027.1 1027.1 0.0
26/05:00am 2.9 1.3 2.5 97 0.2 CALM 0 0 0 0 1027.0 1027.0 0.0
26/04:30am 3.4 1.9 3.1 98 0.1 CALM 0 0 0 0 1026.9 1026.9 0.0
26/04:00am 3.1 1.5 2.7 97 0.2 CALM 0 0 0 0 1027.1 1027.1 0.0
26/03:30am 2.8 1.2 2.2 96 0.2 CALM 0 0 0 0 1027.0 1027.0 0.0
26/03:00am 4.0 2.6 3.6 97 0.2 CALM 0 0 0 0 1027.3 1027.3 0.0
26/02:30am 4.1 2.7 3.7 97 0.2 CALM 0 0 0 0 1027.7 1027.7 0.0
26/02:00am 4.7 3.5 4.4 98 0.1 CALM 0 0 0 0 1028.1 1028.1 0.0
26/01:30am 3.8 2.4 3.4 97 0.2 CALM 0 0 0 0 1028.5 1028.5 0.0
26/01:00am 3.0 1.4 2.6 97 0.2 CALM 0 0 0 0 1028.7 1028.7 0.0
26/12:30am 3.0 1.4 2.4 96 0.2 CALM 0 0 0 0 1028.4 1028.4 0.0
26/12:00am 3.7 2.3 3.3 97 0.2 CALM 0 0 0 0 1028.6 1028.6 0.0
 
Date/Time
CST
Temp
°C
App
Temp
°C
Dew
Point
Rel
Hum
%
Delta-T
°C
Wind Press
QNH
hPa
Press
MSL
hPa
Rain
since 9 am
mm
Dir
 
Spd
km/h
Gust
km/h
Spd
kts
Gust
kts
25/11:30pm 4.0 2.6 3.4 96 0.2 CALM 0 0 0 0 1029.0 1029.0 0.0
25/11:00pm 4.3 2.9 3.7 96 0.2 CALM 0 0 0 0 1029.2 1029.2 0.0
25/10:30pm 4.9 3.6 4.0 94 0.4 CALM 0 0 0 0 1029.4 1029.4 0.0
25/10:00pm 5.7 4.6 5.1 96 0.3 CALM 0 0 0 0 1029.6 1029.6 0.0
25/09:30pm 5.5 4.3 4.6 94 0.4 CALM 0 0 0 0 1029.9 1029.9 0.0
25/09:00pm 7.1 6.2 6.0 93 0.5 CALM 0 0 0 0 1029.7 1029.7 0.0
25/08:30pm 7.3 6.4 6.1 92 0.5 CALM 0 0 0 0 1029.9 1029.9 0.0
25/08:00pm 7.7 5.7 6.2 90 0.7 S 6 7 3 4 1030.0 1030.0 0.0
25/07:30pm 8.6 6.5 6.6 87 0.9 SE 7 9 4 5 1029.8 1029.8 0.0
25/07:00pm 9.2 6.8 6.8 85 1.1 SE 9 11 5 6 1029.7 1029.7 0.0
25/06:30pm 9.9 7.2 7.2 83 1.3 SSE 11 13 6 7 1029.7 1029.7 0.0
25/06:00pm 10.6 7.5 7.3 80 1.6 SE 13 15 7 8 1029.4 1029.4 0.0
25/05:30pm 12.1 8.7 7.8 75 2.1 SSE 15 19 8 10 1029.2 1029.2 0.0
25/05:00pm 12.7 9.0 7.8 72 2.4 SE 17 20 9 11 1029.0 1029.0 0.0
25/04:30pm 14.4 12.3 8.1 66 3.1 ESE 9 13 5 7 1028.8 1028.8 0.0
25/04:00pm 14.7 13.0 8.2 65 3.3 ESE 7 11 4 6 1028.8 1028.8 0.0
25/03:30pm 14.8 11.8 7.8 63 3.5 E 13 19 7 10 1028.7 1028.7 0.0
25/03:00pm 15.0 12.6 8.5 65 3.3 ENE 11 15 6 8 1028.8 1028.8 0.0
25/02:30pm 15.2 12.6 7.7 61 3.7 NE 11 15 6 8 1029.0 1029.0 0.0
25/02:00pm 14.8 11.8 7.6 62 3.6 ENE 13 20 7 11 1029.3 1029.3 0.0
25/01:30pm 14.9 11.4 8.6 66 3.2 NNE 17 22 9 12 1029.6 1029.6 0.0
25/01:00pm 15.1 11.5 8.3 64 3.4 ENE 17 24 9 13 1030.0 1030.0 0.0
25/12:30pm 14.6 10.7 8.8 68 2.9 NE 19 24 10 13 1030.5 1030.5 0.0
25/12:00pm 14.5 10.4 7.8 64 3.3 ENE 19 28 10 15 1031.0 1031.0 0.0
25/11:30am 14.7 11.2 8.6 67 3.1 ENE 17 24 9 13 1031.3 1031.3 0.0
25/11:00am 14.5 10.6 8.5 67 3.0 ENE 19 24 10 13 1031.6 1031.6 0.0
25/10:30am 14.4 10.4 8.1 66 3.1 E 19 28 10 15 1031.9 1031.9 0.0
25/10:00am 14.0 10.0 8.2 68 2.9 ENE 19 24 10 13 1032.1 1032.1 0.0
25/09:30am 13.0 10.6 8.7 75 2.1 E 11 15 6 8 1032.2 1032.2 0.0
25/09:00am 10.9 10.5 8.1 83 1.3 CALM 0 0 0 0 1032.1 1032.1 0.0
25/08:30am 8.7 8.1 7.5 92 0.6 CALM 0 0 0 0 1032.1 1032.1 0.0

Other Formats:

Comma delimited format used in spreadsheet applications
http://www.bom.gov.au/fwo/IDS60801/IDS60801.95807.axf

JavaScript Object Notation format (JSON) in row-major order
http://www.bom.gov.au/fwo/IDS60801/IDS60801.95807.json